createdAt,value
2017-05-28T00:00:22.493Z,42.87
2017-05-28T00:01:22.521Z,43.07
2017-05-28T00:02:22.239Z,43.26
2017-05-28T00:03:22.584Z,43.36
2017-05-28T00:04:22.617Z,43.26
2017-05-28T00:05:22.645Z,43.07
2017-05-28T00:06:22.362Z,43.07
2017-05-28T00:07:22.702Z,43.07
2017-05-28T00:08:22.423Z,42.97
2017-05-28T00:09:22.765Z,42.97
2017-05-28T00:10:22.479Z,43.55
2017-05-28T00:11:22.514Z,43.36
2017-05-28T00:12:22.851Z,42.87
2017-05-28T00:13:22.887Z,43.26
2017-05-28T00:14:22.916Z,43.16
2017-05-28T00:15:22.945Z,43.46
2017-05-28T00:16:22.666Z,43.36
2017-05-28T00:17:23.015Z,43.36
2017-05-28T00:18:23.047Z,43.55
2017-05-28T00:19:23.317Z,43.36
2017-05-28T00:20:23.108Z,43.46
2017-05-28T00:21:22.818Z,43.36
2017-05-28T00:22:22.846Z,43.16
2017-05-28T00:23:23.193Z,43.36
2017-05-28T00:24:23.161Z,43.36
2017-05-28T00:25:23.253Z,43.26
2017-05-28T00:26:22.973Z,43.46
2017-05-28T00:27:23.311Z,43.55
2017-05-28T00:28:23.343Z,43.36
2017-05-28T00:29:23.625Z,43.07
2017-05-28T00:30:23.394Z,43.55
2017-05-28T00:31:23.435Z,43.36
2017-05-28T00:32:23.147Z,43.36
2017-05-28T00:33:23.492Z,43.46
2017-05-28T00:34:23.724Z,43.36
2017-05-28T00:35:23.552Z,43.26
2017-05-28T00:36:23.280Z,43.26
2017-05-28T00:37:23.616Z,43.36
2017-05-28T00:38:23.647Z,43.24
2017-05-28T00:39:23.612Z,43.63
2017-05-28T00:40:23.706Z,43.36
2017-05-28T00:41:23.742Z,43.55
2017-05-28T00:42:23.454Z,43.44
2017-05-28T00:43:23.797Z,43.44
2017-05-28T00:44:24.024Z,43.63
2017-05-28T00:45:23.857Z,43.65
2017-05-28T00:46:23.886Z,43.63
2017-05-28T00:47:23.915Z,43.65
2017-05-28T00:48:23.632Z,43.63
2017-05-28T00:49:24.229Z,43.65
2017-05-28T00:50:24.010Z,43.73
2017-05-28T00:51:24.034Z,43.63
2017-05-28T00:52:23.751Z,43.55
2017-05-28T00:53:24.105Z,43.65
2017-05-28T00:54:24.065Z,43.85
2017-05-28T00:55:23.850Z,44.24
2017-05-28T00:56:24.189Z,43.82
2017-05-28T00:57:24.220Z,43.85
2017-05-28T00:58:24.249Z,43.73
2017-05-28T00:59:24.481Z,43.54
2017-05-28T01:00:23.994Z,43.63
2017-05-28T01:01:24.342Z,43.63
2017-05-28T01:02:24.059Z,43.63
2017-05-28T01:03:24.402Z,43.73
2017-05-28T01:04:24.438Z,43.54
2017-05-28T01:05:24.465Z,44.02
2017-05-28T01:06:24.491Z,43.92
2017-05-28T01:07:24.524Z,44.51
2017-05-28T01:08:24.552Z,44.31
2017-05-28T01:09:24.580Z,44.14
2017-05-28T01:10:24.606Z,44.04
2017-05-28T01:11:24.651Z,44.12
2017-05-28T01:12:24.672Z,44.51
2017-05-28T01:13:24.709Z,44.12
2017-05-28T01:14:24.734Z,44.51
2017-05-28T01:15:24.765Z,43.92
2017-05-28T01:16:24.800Z,44.12
2017-05-28T01:17:24.511Z,44.21
2017-05-28T01:18:24.847Z,44.12
2017-05-28T01:19:24.573Z,44.31
2017-05-28T01:20:24.602Z,44.51
2017-05-28T01:21:24.946Z,44.51
2017-05-28T01:22:24.973Z,44.21
2017-05-28T01:23:25.005Z,44.21
2017-05-28T01:24:25.039Z,44.21
2017-05-28T01:25:24.753Z,44.51
2017-05-28T01:26:25.096Z,44.21
2017-05-28T01:27:24.816Z,44.31
2017-05-28T01:28:24.836Z,44.31
2017-05-28T01:29:24.876Z,44.21
2017-05-28T01:30:25.218Z,44.21
2017-05-28T01:31:25.247Z,44.31
2017-05-28T01:32:25.273Z,44.41
2017-05-28T01:33:24.997Z,44.21
2017-05-28T01:34:25.339Z,44.21
2017-05-28T01:35:25.054Z,44.12
2017-05-28T01:36:25.401Z,44.51
2017-05-28T01:37:25.431Z,44.21
2017-05-28T01:38:25.468Z,44.41
2017-05-28T01:39:25.190Z,44.21
2017-05-28T01:40:25.530Z,44.31
2017-05-28T01:41:25.254Z,44.21
2017-05-28T01:42:25.268Z,44.12
2017-05-28T01:43:25.609Z,44.02
2017-05-28T01:44:25.339Z,44.21
2017-05-28T01:45:25.365Z,44.21
2017-05-28T01:46:25.383Z,44.02
2017-05-28T01:47:25.732Z,44.51
2017-05-28T01:48:25.761Z,44.21
2017-05-28T01:49:25.790Z,44.12
2017-05-28T01:50:25.830Z,43.92
2017-05-28T01:51:25.552Z,44.02
2017-05-28T01:52:25.568Z,44.02
2017-05-28T01:53:25.913Z,44.51
2017-05-28T01:54:25.942Z,44.12
2017-05-28T01:55:25.969Z,44.12
2017-05-28T01:56:26.003Z,44.21
2017-05-28T01:57:26.036Z,44.02
2017-05-28T01:58:26.124Z,44.21
2017-05-28T01:59:26.087Z,44.02
2017-05-28T02:00:26.147Z,44.21
2017-05-28T02:01:26.152Z,43.92
2017-05-28T02:02:26.180Z,44.21
2017-05-28T02:03:25.906Z,44.41
2017-05-28T02:04:26.241Z,44.31
2017-05-28T02:05:25.958Z,44.12
2017-05-28T02:06:26.308Z,44.51
2017-05-28T02:07:26.335Z,44.51
2017-05-28T02:08:26.359Z,43.92
2017-05-28T02:09:26.082Z,44.12
2017-05-28T02:10:26.423Z,44.12
2017-05-28T02:11:26.131Z,44.31
2017-05-28T02:12:26.167Z,44.31
2017-05-28T02:13:26.514Z,44.31
2017-05-28T02:14:26.543Z,44.31
2017-05-28T02:15:26.571Z,44.31
2017-05-28T02:16:26.598Z,44.02
2017-05-28T02:17:26.317Z,44.12
2017-05-28T02:18:26.665Z,44.12
2017-05-28T02:19:26.379Z,44.12
2017-05-28T02:20:26.727Z,44.21
2017-05-28T02:21:26.440Z,44.02
2017-05-28T02:22:26.792Z,44.21
2017-05-28T02:23:26.825Z,44.21
2017-05-28T02:24:26.846Z,44.12
2017-05-28T02:25:26.877Z,44.21
2017-05-28T02:26:26.904Z,44.21
2017-05-28T02:27:26.945Z,44.12
2017-05-28T02:28:26.966Z,44.31
2017-05-28T02:29:26.990Z,44.31
2017-05-28T02:30:27.024Z,44.41
2017-05-28T02:31:27.055Z,44.51
2017-05-28T02:32:27.081Z,44.31
2017-05-28T02:33:26.797Z,44.6
2017-05-28T02:34:26.825Z,44.89
2017-05-28T02:35:27.176Z,44.99
2017-05-28T02:36:27.205Z,44.79
2017-05-28T02:37:27.240Z,44.6
2017-05-28T02:38:27.266Z,44.89
2017-05-28T02:39:26.983Z,44.31
2017-05-28T02:40:27.322Z,44.6
2017-05-28T02:41:27.041Z,44.79
2017-05-28T02:42:27.380Z,44.51
2017-05-28T02:43:27.418Z,44.7
2017-05-28T02:44:27.434Z,44.7
2017-05-28T02:45:27.471Z,44.79
2017-05-28T02:46:27.517Z,44.7
2017-05-28T02:47:27.533Z,44.7
2017-05-28T02:48:27.561Z,44.89
2017-05-28T02:49:27.623Z,44.51
2017-05-28T02:50:27.307Z,44.78
2017-05-28T02:51:27.656Z,44.78
2017-05-28T02:52:27.685Z,44.7
2017-05-28T02:53:27.710Z,44.48
2017-05-28T02:54:27.747Z,44.79
2017-05-28T02:55:27.776Z,44.79
2017-05-28T02:56:27.812Z,44.7
2017-05-28T02:57:27.520Z,44.89
2017-05-28T02:58:27.550Z,44.48
2017-05-28T02:59:27.900Z,44.51
2017-05-28T03:00:27.925Z,44.38
2017-05-28T03:01:27.644Z,44.51
2017-05-28T03:02:27.977Z,44.48
2017-05-28T03:03:28.010Z,44.48
2017-05-28T03:04:28.048Z,44.6
2017-05-28T03:05:28.077Z,44.48
2017-05-28T03:06:28.100Z,44.51
2017-05-28T03:07:28.138Z,44.48
2017-05-28T03:08:28.165Z,44.38
2017-05-28T03:09:28.196Z,44.48
2017-05-28T03:10:28.227Z,44.48
2017-05-28T03:11:27.941Z,44.29
2017-05-28T03:12:28.285Z,44.51
2017-05-28T03:13:28.315Z,44.38
2017-05-28T03:14:28.031Z,44.6
2017-05-28T03:15:28.628Z,44.58
2017-05-28T03:16:28.411Z,44.68
2017-05-28T03:17:28.123Z,44.48
2017-05-28T03:18:28.466Z,44.51
2017-05-28T03:19:28.497Z,44.68
2017-05-28T03:20:28.491Z,44.68
2017-05-28T03:21:28.596Z,44.78
2017-05-28T03:22:28.276Z,44.29
2017-05-28T03:23:28.619Z,44.78
2017-05-28T03:24:28.643Z,44.38
2017-05-28T03:25:28.571Z,44.68
2017-05-28T03:26:28.703Z,44.48
2017-05-28T03:27:28.733Z,44.48
2017-05-28T03:28:28.763Z,44.38
2017-05-28T03:29:28.795Z,44.38
2017-05-28T03:30:29.076Z,44.87
2017-05-28T03:31:28.546Z,44.78
2017-05-28T03:32:28.575Z,44.97
2017-05-28T03:33:28.915Z,45.45
2017-05-28T03:34:28.944Z,44.87
2017-05-28T03:35:29.224Z,44.87
2017-05-28T03:36:29.005Z,45.17
2017-05-28T03:37:29.033Z,45.17
2017-05-28T03:38:28.749Z,44.78
2017-05-28T03:39:28.783Z,45.17
2017-05-28T03:40:29.372Z,45.17
2017-05-28T03:41:29.153Z,45.17
2017-05-28T03:42:29.181Z,45.07
2017-05-28T03:43:29.215Z,45.17
2017-05-28T03:44:29.239Z,45.17
2017-05-28T03:45:29.521Z,44.99
2017-05-28T03:46:29.302Z,44.97
2017-05-28T03:47:29.335Z,45.26
2017-05-28T03:48:29.363Z,45.17
2017-05-28T03:49:29.395Z,44.87
2017-05-28T03:50:29.625Z,45.26
2017-05-28T03:51:29.449Z,44.87
2017-05-28T03:52:29.483Z,45.18
2017-05-28T03:53:29.519Z,45.17
2017-05-28T03:54:29.545Z,45.07
2017-05-28T03:55:29.823Z,45.07
2017-05-28T03:56:29.601Z,45.17
2017-05-28T03:57:29.637Z,45.07
2017-05-28T03:58:29.663Z,45.17
2017-05-28T03:59:29.696Z,45.26
2017-05-28T04:00:29.976Z,45.26
2017-05-28T04:01:29.754Z,45.07
2017-05-28T04:02:29.779Z,45.17
2017-05-28T04:03:29.809Z,45.17
2017-05-28T04:04:29.842Z,45.17
2017-05-28T04:05:30.120Z,45.07
2017-05-28T04:06:29.901Z,45.17
2017-05-28T04:07:29.930Z,45.17
2017-05-28T04:08:29.963Z,45.07
2017-05-28T04:09:29.992Z,45.26
2017-05-28T04:10:30.273Z,45.17
2017-05-28T04:11:30.049Z,45.07
2017-05-28T04:12:30.082Z,45.17
2017-05-28T04:13:29.798Z,45.17
2017-05-28T04:14:30.133Z,45.07
2017-05-28T04:15:30.108Z,44.97
2017-05-28T04:16:30.200Z,45.17
2017-05-28T04:17:30.232Z,45.26
2017-05-28T04:18:30.259Z,45.17
2017-05-28T04:19:30.292Z,45.07
2017-05-28T04:20:30.519Z,45.17
2017-05-28T04:21:30.349Z,45.17
2017-05-28T04:22:30.073Z,45.07
2017-05-28T04:23:30.099Z,45.07
2017-05-28T04:24:30.442Z,45.07
2017-05-28T04:25:30.468Z,45.17
2017-05-28T04:26:30.502Z,45.07
2017-05-28T04:27:30.530Z,45.17
2017-05-28T04:28:30.252Z,45.07
2017-05-28T04:29:30.589Z,45.07
2017-05-28T04:30:30.621Z,44.87
2017-05-28T04:31:30.650Z,44.87
2017-05-28T04:32:30.682Z,44.97
2017-05-28T04:33:30.708Z,44.87
2017-05-28T04:34:30.426Z,44.87
2017-05-28T04:35:30.770Z,44.97
2017-05-28T04:36:30.485Z,44.97
2017-05-28T04:37:30.832Z,44.78
2017-05-28T04:38:30.863Z,44.97
2017-05-28T04:39:30.885Z,44.78
2017-05-28T04:40:30.921Z,44.87
2017-05-28T04:41:30.949Z,44.97
2017-05-28T04:42:30.978Z,44.87
2017-05-28T04:43:31.007Z,44.97
2017-05-28T04:44:31.041Z,45.07
2017-05-28T04:45:31.070Z,45.07
2017-05-28T04:46:31.097Z,44.87
2017-05-28T04:47:31.126Z,44.87
2017-05-28T04:48:31.160Z,44.58
2017-05-28T04:49:31.188Z,44.87
2017-05-28T04:50:31.208Z,44.78
2017-05-28T04:51:30.933Z,44.97
2017-05-28T04:52:30.962Z,45.07
2017-05-28T04:53:31.308Z,45.07
2017-05-28T04:54:31.338Z,45.17
2017-05-28T04:55:31.370Z,45.07
2017-05-28T04:56:31.398Z,44.58
2017-05-28T04:57:31.431Z,45.17
2017-05-28T04:58:31.144Z,44.78
2017-05-28T04:59:31.173Z,44.78
2017-05-28T05:00:31.518Z,45.17
2017-05-28T05:01:31.559Z,45.36
2017-05-28T05:02:31.263Z,45.26
2017-05-28T05:03:31.291Z,45.26
2017-05-28T05:04:31.637Z,45.17
2017-05-28T05:05:31.666Z,45.45
2017-05-28T05:06:31.378Z,45.45
2017-05-28T05:07:31.724Z,44.97
2017-05-28T05:08:31.748Z,45.36
2017-05-28T05:09:31.782Z,45.36
2017-05-28T05:10:31.818Z,45.26
2017-05-28T05:11:31.527Z,44.97
2017-05-28T05:12:31.875Z,44.68
2017-05-28T05:13:31.585Z,45.45
2017-05-28T05:14:31.933Z,45.17
2017-05-28T05:15:31.962Z,44.87
2017-05-28T05:16:31.992Z,45.07
2017-05-28T05:17:32.020Z,45.26
2017-05-28T05:18:32.053Z,45.36
2017-05-28T05:19:32.126Z,45.36
2017-05-28T05:20:32.115Z,44.58
2017-05-28T05:21:32.145Z,45.45
2017-05-28T05:22:32.181Z,44.58
2017-05-28T05:23:32.201Z,44.97
2017-05-28T05:24:31.921Z,45.07
2017-05-28T05:25:32.264Z,45.55
2017-05-28T05:26:32.288Z,45.55
2017-05-28T05:27:32.329Z,45.26
2017-05-28T05:28:32.354Z,46.04
2017-05-28T05:29:32.379Z,45.45
2017-05-28T05:30:32.099Z,45.45
2017-05-28T05:31:32.443Z,45.45
2017-05-28T05:32:32.159Z,45.55
2017-05-28T05:33:32.501Z,45.36
2017-05-28T05:34:32.527Z,45.55
2017-05-28T05:35:32.561Z,45.94
2017-05-28T05:36:32.587Z,45.75
2017-05-28T05:37:32.308Z,45.36
2017-05-28T05:38:32.342Z,45.17
2017-05-28T05:39:32.686Z,45.45
2017-05-28T05:40:32.389Z,45.45
2017-05-28T05:41:32.740Z,45.36
2017-05-28T05:42:32.772Z,45.65
2017-05-28T05:43:32.489Z,45.65
2017-05-28T05:44:32.822Z,45.84
2017-05-28T05:45:32.858Z,45.55
2017-05-28T05:46:32.574Z,45.65
2017-05-28T05:47:32.921Z,45.65
2017-05-28T05:48:32.945Z,45.55
2017-05-28T05:49:32.972Z,45.65
2017-05-28T05:50:32.695Z,45.84
2017-05-28T05:51:33.048Z,45.55
2017-05-28T05:52:32.757Z,45.65
2017-05-28T05:53:32.788Z,45.75
2017-05-28T05:54:33.130Z,45.36
2017-05-28T05:55:33.162Z,45.84
2017-05-28T05:56:32.876Z,45.45
2017-05-28T05:57:32.905Z,45.75
2017-05-28T05:58:33.262Z,45.36
2017-05-28T05:59:33.271Z,45.84
2017-05-28T06:00:33.303Z,45.65
2017-05-28T06:01:33.339Z,45.65
2017-05-28T06:02:33.364Z,45.55
2017-05-28T06:03:33.401Z,45.84
2017-05-28T06:04:33.430Z,45.45
2017-05-28T06:05:33.460Z,45.45
2017-05-28T06:06:33.492Z,46.14
2017-05-28T06:07:33.514Z,46.23
2017-05-28T06:08:33.549Z,45.65
2017-05-28T06:09:33.578Z,45.45
2017-05-28T06:10:33.291Z,45.65
2017-05-28T06:11:33.635Z,46.23
2017-05-28T06:12:33.356Z,45.65
2017-05-28T06:13:33.698Z,45.55
2017-05-28T06:14:33.726Z,46.33
2017-05-28T06:15:33.445Z,45.65
2017-05-28T06:16:33.476Z,45.45
2017-05-28T06:17:33.818Z,46.33
2017-05-28T06:18:33.849Z,46.04
2017-05-28T06:19:33.875Z,45.75
2017-05-28T06:20:33.587Z,45.65
2017-05-28T06:21:33.940Z,45.94
2017-05-28T06:22:33.966Z,46.14
2017-05-28T06:23:33.997Z,45.94
2017-05-28T06:24:33.710Z,45.94
2017-05-28T06:25:34.063Z,45.84
2017-05-28T06:26:34.084Z,46.42
2017-05-28T06:27:34.117Z,46.04
2017-05-28T06:28:33.834Z,46.42
2017-05-28T06:29:34.178Z,46.23
2017-05-28T06:30:34.207Z,45.84
2017-05-28T06:31:34.241Z,46.23
2017-05-28T06:32:34.270Z,46.23
2017-05-28T06:33:34.364Z,46.33
2017-05-28T06:34:34.018Z,46.14
2017-05-28T06:35:34.356Z,46.52
2017-05-28T06:36:34.071Z,46.33
2017-05-28T06:37:34.417Z,46.14
2017-05-28T06:38:34.130Z,46.33
2017-05-28T06:39:34.479Z,46.35
2017-05-28T06:40:34.506Z,46.33
2017-05-28T06:41:34.536Z,46.62
2017-05-28T06:42:34.247Z,46.55
2017-05-28T06:43:34.598Z,46.33
2017-05-28T06:44:34.627Z,46.23
2017-05-28T06:45:34.343Z,46.35
2017-05-28T06:46:34.689Z,46.52
2017-05-28T06:47:34.716Z,46.04
2017-05-28T06:48:34.430Z,46.33
2017-05-28T06:49:34.458Z,46.62
2017-05-28T06:50:34.803Z,46.23
2017-05-28T06:51:34.836Z,46.62
2017-05-28T06:52:34.870Z,46.35
2017-05-28T06:53:34.897Z,46.62
2017-05-28T06:54:34.616Z,46.55
2017-05-28T06:55:34.952Z,46.23
2017-05-28T06:56:34.984Z,46.55
2017-05-28T06:57:35.017Z,45.87
2017-05-28T06:58:35.045Z,46.45
2017-05-28T06:59:35.079Z,46.33
2017-05-28T07:00:35.108Z,46.72
2017-05-28T07:01:35.136Z,46.62
2017-05-28T07:02:35.161Z,46.23
2017-05-28T07:03:35.193Z,46.35
2017-05-28T07:04:35.229Z,46.64
2017-05-28T07:05:35.252Z,46.04
2017-05-28T07:06:35.288Z,46.04
2017-05-28T07:07:35.318Z,46.62
2017-05-28T07:08:35.347Z,46.52
2017-05-28T07:09:35.380Z,46.42
2017-05-28T07:10:35.409Z,46.23
2017-05-28T07:11:35.437Z,46.35
2017-05-28T07:12:35.466Z,46.64
2017-05-28T07:13:35.499Z,46.04
2017-05-28T07:14:35.524Z,45.94
2017-05-28T07:15:35.243Z,46.62
2017-05-28T07:16:35.277Z,46.91
2017-05-28T07:17:35.613Z,46.62
2017-05-28T07:18:35.645Z,47.42
2017-05-28T07:19:35.670Z,46.64
2017-05-28T07:20:35.708Z,46.14
2017-05-28T07:21:35.737Z,46.45
2017-05-28T07:22:35.764Z,46.62
2017-05-28T07:23:35.482Z,46.81
2017-05-28T07:24:35.511Z,46.64
2017-05-28T07:25:35.540Z,46.91
2017-05-28T07:26:35.885Z,46.72
2017-05-28T07:27:35.918Z,46.74
2017-05-28T07:28:35.946Z,47.4
2017-05-28T07:29:35.983Z,46.91
2017-05-28T07:30:36.012Z,46.64
2017-05-28T07:31:36.039Z,46.64
2017-05-28T07:32:36.067Z,46.94
2017-05-28T07:33:35.781Z,46.45
2017-05-28T07:34:36.127Z,46.64
2017-05-28T07:35:36.161Z,46.84
2017-05-28T07:36:36.382Z,46.52
2017-05-28T07:37:36.217Z,46.74
2017-05-28T07:38:36.243Z,46.52
2017-05-28T07:39:36.284Z,46.62
2017-05-28T07:40:36.306Z,46.64
2017-05-28T07:41:36.589Z,46.74
2017-05-28T07:42:36.370Z,47.03
2017-05-28T07:43:36.398Z,46.84
2017-05-28T07:44:36.114Z,46.06
2017-05-28T07:45:36.464Z,46.64
2017-05-28T07:46:36.742Z,46.64
2017-05-28T07:47:36.522Z,47.03
2017-05-28T07:48:36.550Z,46.84
2017-05-28T07:49:36.581Z,47.42
2017-05-28T07:50:36.294Z,47.42
2017-05-28T07:51:36.893Z,47.13
2017-05-28T07:52:36.674Z,46.84
2017-05-28T07:53:36.390Z,47.71
2017-05-28T07:54:36.731Z,47.61
2017-05-28T07:55:36.760Z,48.1
2017-05-28T07:56:37.040Z,47.91
2017-05-28T07:57:36.511Z,47.81
2017-05-28T07:58:36.848Z,47.71
2017-05-28T07:59:36.875Z,47.71
2017-05-28T08:00:36.912Z,47.42
2017-05-28T08:01:37.185Z,46.74
2017-05-28T08:02:36.658Z,46.74
2017-05-28T08:03:36.999Z,47.61
2017-05-28T08:04:37.033Z,47.13
2017-05-28T08:05:36.749Z,47.32
2017-05-28T08:06:37.340Z,47.52
2017-05-28T08:07:37.122Z,46.84
2017-05-28T08:08:37.143Z,47.52
2017-05-28T08:09:37.188Z,46.84
2017-05-28T08:10:37.213Z,47.61
2017-05-28T08:11:37.441Z,47.42
2017-05-28T08:12:37.274Z,47.61
2017-05-28T08:13:37.307Z,47.42
2017-05-28T08:14:37.350Z,47.13
2017-05-28T08:15:37.365Z,47.61
2017-05-28T08:16:37.645Z,47.32
2017-05-28T08:17:37.413Z,47.23
2017-05-28T08:18:37.456Z,47.42
2017-05-28T08:19:37.484Z,47.71
2017-05-28T08:20:37.509Z,47.61
2017-05-28T08:21:37.547Z,46.94
2017-05-28T08:22:37.570Z,47.61
2017-05-28T08:23:37.607Z,48.1
2017-05-28T08:24:37.635Z,47.81
2017-05-28T08:25:37.666Z,47.42
2017-05-28T08:26:37.694Z,47.52
2017-05-28T08:27:37.739Z,48.49
2017-05-28T08:28:37.760Z,47.91
2017-05-28T08:29:37.786Z,47.71
2017-05-28T08:30:37.813Z,47.91
2017-05-28T08:31:37.842Z,47.81
2017-05-28T08:32:37.871Z,47.91
2017-05-28T08:33:37.907Z,47.91
2017-05-28T08:34:37.936Z,48.58
2017-05-28T08:35:37.965Z,48.71
2017-05-28T08:36:38.000Z,47.52
2017-05-28T08:37:38.035Z,47.81
2017-05-28T08:38:38.056Z,48.51
2017-05-28T08:39:38.084Z,48.1
2017-05-28T08:40:38.117Z,47.83
2017-05-28T08:41:37.837Z,48.49
2017-05-28T08:42:38.179Z,48.58
2017-05-28T08:43:37.893Z,47.91
2017-05-28T08:44:38.239Z,48.41
2017-05-28T08:45:38.264Z,48.3
2017-05-28T08:46:38.294Z,48.8
2017-05-28T08:47:38.347Z,48.13
2017-05-28T08:48:38.352Z,48.41
2017-05-28T08:49:38.393Z,48.49
2017-05-28T08:50:38.417Z,48.49
2017-05-28T08:51:38.139Z,48.41
2017-05-28T08:52:38.483Z,48.51
2017-05-28T08:53:38.200Z,48.51
2017-05-28T08:54:38.541Z,48.71
2017-05-28T08:55:38.585Z,48.71
2017-05-28T08:56:38.602Z,49.39
2017-05-28T08:57:38.636Z,49
2017-05-28T08:58:38.664Z,49.49
2017-05-28T08:59:38.688Z,48.9
2017-05-28T09:00:38.724Z,49.1
2017-05-28T09:01:38.755Z,48.71
2017-05-28T09:02:38.471Z,48.61
2017-05-28T09:03:38.819Z,49.19
2017-05-28T09:04:38.849Z,48.9
2017-05-28T09:05:38.873Z,49.29
2017-05-28T09:06:38.907Z,48.61
2017-05-28T09:07:38.623Z,48.9
2017-05-28T09:08:38.965Z,49
2017-05-28T09:09:39.005Z,49
2017-05-28T09:10:39.025Z,48.9
2017-05-28T09:11:38.771Z,49
2017-05-28T09:12:39.083Z,49
2017-05-28T09:13:39.117Z,49.1
2017-05-28T09:14:39.149Z,49
2017-05-28T09:15:38.862Z,48.9
2017-05-28T09:16:38.900Z,49.1
2017-05-28T09:17:39.239Z,48.9
2017-05-28T09:18:38.956Z,49
2017-05-28T09:19:39.298Z,48.8
2017-05-28T09:20:39.330Z,49.29
2017-05-28T09:21:39.363Z,49.22
2017-05-28T09:22:39.392Z,49.1
2017-05-28T09:23:39.115Z,49.32
2017-05-28T09:24:39.448Z,49.29
2017-05-28T09:25:39.170Z,48.9
2017-05-28T09:26:39.516Z,49.29
2017-05-28T09:27:39.544Z,49.68
2017-05-28T09:28:39.576Z,50.29
2017-05-28T09:29:39.605Z,50.09
2017-05-28T09:30:39.319Z,50.09
2017-05-28T09:31:39.667Z,50.58
2017-05-28T09:32:39.696Z,50.38
2017-05-28T09:33:39.725Z,50.29
2017-05-28T09:34:39.758Z,50.29
2017-05-28T09:35:39.786Z,50.65
2017-05-28T09:36:39.825Z,50.68
2017-05-28T09:37:39.840Z,50.38
2017-05-28T09:38:39.880Z,50.58
2017-05-28T09:39:39.605Z,50.38
2017-05-28T09:40:39.938Z,50.38
2017-05-28T09:41:39.967Z,50.48
2017-05-28T09:42:40.001Z,49.9
2017-05-28T09:43:40.029Z,50.38
2017-05-28T09:44:39.750Z,50.48
2017-05-28T09:45:40.091Z,50.09
2017-05-28T09:46:40.128Z,50.68
2017-05-28T09:47:40.152Z,50.29
2017-05-28T09:48:40.181Z,49.99
2017-05-28T09:49:40.215Z,50.09
2017-05-28T09:50:40.235Z,50.09
2017-05-28T09:51:39.965Z,49.9
2017-05-28T09:52:40.310Z,50.09
2017-05-28T09:53:40.337Z,49.71
2017-05-28T09:54:40.366Z,50.09
2017-05-28T09:55:40.395Z,50.19
2017-05-28T09:56:40.427Z,50.09
2017-05-28T09:57:40.456Z,50.09
2017-05-28T09:58:40.489Z,50.48
2017-05-28T09:59:40.517Z,50.38
2017-05-28T10:00:40.551Z,50.09
2017-05-28T10:01:40.582Z,49.99
2017-05-28T10:02:40.615Z,49.99
2017-05-28T10:03:40.637Z,49.99
2017-05-28T10:04:40.720Z,49.8
2017-05-28T10:05:40.702Z,50.48
2017-05-28T10:06:40.725Z,49.99
2017-05-28T10:07:40.761Z,49.99
2017-05-28T10:08:40.794Z,49.99
2017-05-28T10:09:40.822Z,49.71
2017-05-28T10:10:40.855Z,49.9
2017-05-28T10:11:40.572Z,49.9
2017-05-28T10:12:40.602Z,50.48
2017-05-28T10:13:40.942Z,50.29
2017-05-28T10:14:40.667Z,50.38
2017-05-28T10:15:41.012Z,49.9
2017-05-28T10:16:41.037Z,50.48
2017-05-28T10:17:41.074Z,50.09
2017-05-28T10:18:40.787Z,49.99
2017-05-28T10:19:41.130Z,49.99
2017-05-28T10:20:41.212Z,49.9
2017-05-28T10:21:41.187Z,49.8
2017-05-28T10:22:41.469Z,50.09
2017-05-28T10:23:40.938Z,50.29
2017-05-28T10:24:41.277Z,50.19
2017-05-28T10:25:41.307Z,50.09
2017-05-28T10:26:41.344Z,49.71
2017-05-28T10:27:41.573Z,50.09
2017-05-28T10:28:41.400Z,50.09
2017-05-28T10:29:41.435Z,49.71
2017-05-28T10:30:41.464Z,50.09
2017-05-28T10:31:41.496Z,49.41
2017-05-28T10:32:41.768Z,49.54
2017-05-28T10:33:41.562Z,49.32
2017-05-28T10:34:41.580Z,49.51
2017-05-28T10:35:41.619Z,49.9
2017-05-28T10:36:41.644Z,49.44
2017-05-28T10:37:41.877Z,49.34
2017-05-28T10:38:41.707Z,50.41
2017-05-28T10:39:41.739Z,49.44
2017-05-28T10:40:41.460Z,49.73
2017-05-28T10:41:41.797Z,49.44
2017-05-28T10:42:41.773Z,49.24
2017-05-28T10:43:41.867Z,49.05
2017-05-28T10:44:41.633Z,49.34
2017-05-28T10:45:41.989Z,49.34
2017-05-28T10:46:41.960Z,49.34
2017-05-28T10:47:42.185Z,48.95
2017-05-28T10:48:42.018Z,49.15
2017-05-28T10:49:42.044Z,49.63
2017-05-28T10:50:42.079Z,49.05
2017-05-28T10:51:42.109Z,49.44
2017-05-28T10:52:42.390Z,49.34
2017-05-28T10:53:42.172Z,49.24
2017-05-28T10:54:42.200Z,48.95
2017-05-28T10:55:42.229Z,48.66
2017-05-28T10:56:41.949Z,49.05
2017-05-28T10:57:42.545Z,48.66
2017-05-28T10:58:42.324Z,48.07
2017-05-28T10:59:42.354Z,49.05
2017-05-28T11:00:42.379Z,49.05
2017-05-28T11:01:42.418Z,49.44
2017-05-28T11:02:42.697Z,49.05
2017-05-28T11:03:42.479Z,48.85
2017-05-28T11:04:42.512Z,49.05
2017-05-28T11:05:42.543Z,48.95
2017-05-28T11:06:42.573Z,49.05
2017-05-28T11:07:42.601Z,48.95
2017-05-28T11:08:42.635Z,48.95
2017-05-28T11:09:42.662Z,48.95
2017-05-28T11:10:42.704Z,48.85
2017-05-28T11:11:42.726Z,48.75
2017-05-28T11:12:42.759Z,48.95
2017-05-28T11:13:42.792Z,48.85
2017-05-28T11:14:42.820Z,48.56
2017-05-28T11:15:42.849Z,48.78
2017-05-28T11:16:42.876Z,48.56
2017-05-28T11:17:42.911Z,47.71
2017-05-28T11:18:42.939Z,48.68
2017-05-28T11:19:42.967Z,48.78
2017-05-28T11:20:43.006Z,47.71
2017-05-28T11:21:43.034Z,48.19
2017-05-28T11:22:42.751Z,48.29
2017-05-28T11:23:43.100Z,48.1
2017-05-28T11:24:43.128Z,48
2017-05-28T11:25:43.153Z,48
2017-05-28T11:26:43.181Z,47.71
2017-05-28T11:27:43.219Z,47.8
2017-05-28T11:28:43.251Z,47.71
2017-05-28T11:29:43.281Z,48.1
2017-05-28T11:30:43.308Z,47.52
2017-05-28T11:31:43.347Z,47.52
2017-05-28T11:32:43.376Z,47.8
2017-05-28T11:33:43.413Z,47.42
2017-05-28T11:34:43.436Z,47.32
2017-05-28T11:35:43.468Z,46.66
2017-05-28T11:36:43.190Z,47.15
2017-05-28T11:37:43.526Z,47.05
2017-05-28T11:38:43.566Z,45.98
2017-05-28T11:39:43.597Z,46.2
2017-05-28T11:40:43.624Z,46
2017-05-28T11:41:43.658Z,45.44
2017-05-28T11:42:43.696Z,44.85
2017-05-28T11:43:43.716Z,44.68
2017-05-28T11:44:43.754Z,44.29
2017-05-28T11:45:43.781Z,43.8
2017-05-28T11:46:43.817Z,43.32
2017-05-28T11:47:43.539Z,43.24
2017-05-28T11:48:43.887Z,42.68
2017-05-28T11:49:43.914Z,42.77
2017-05-28T11:50:43.941Z,42.58
2017-05-28T11:51:43.974Z,42.19
2017-05-28T11:52:44.011Z,41.72
2017-05-28T11:53:44.048Z,41.33
2017-05-28T11:54:44.075Z,41.33
2017-05-28T11:55:43.793Z,41.25
2017-05-28T11:56:44.142Z,40.95
2017-05-28T11:57:44.188Z,40.29
2017-05-28T11:58:44.216Z,40.48
2017-05-28T11:59:44.241Z,40.09
2017-05-28T12:00:44.276Z,39.53
2017-05-28T12:01:44.309Z,39.04
2017-05-28T12:02:44.343Z,39.82
2017-05-28T12:03:44.373Z,39.43
2017-05-28T12:04:44.413Z,38.86
2017-05-28T12:05:44.446Z,38.76
2017-05-28T12:06:44.165Z,38.47
2017-05-28T12:07:44.194Z,38.49
2017-05-28T12:08:44.548Z,38.1
2017-05-28T12:09:44.580Z,38
2017-05-28T12:10:44.616Z,37.71
2017-05-28T12:11:44.343Z,37.71
2017-05-28T12:12:44.680Z,37.31
2017-05-28T12:13:44.720Z,37.04
2017-05-28T12:14:44.753Z,36.94
2017-05-28T12:15:44.786Z,36.94
2017-05-28T12:16:44.822Z,36.76
2017-05-28T12:17:44.549Z,36.57
2017-05-28T12:18:44.575Z,36.66
2017-05-28T12:19:44.928Z,36.47
2017-05-28T12:20:44.962Z,36.27
2017-05-28T12:21:44.682Z,35.97
2017-05-28T12:22:45.031Z,35.49
2017-05-28T12:23:45.077Z,35.8
2017-05-28T12:24:45.109Z,35.5
2017-05-28T12:25:45.138Z,35.6
2017-05-28T12:26:45.175Z,35.5
2017-05-28T12:27:45.215Z,35.5
2017-05-28T12:28:44.937Z,35.8
2017-05-28T12:29:45.286Z,35.13
2017-05-28T12:30:45.317Z,34.93
2017-05-28T12:31:45.351Z,34.93
2017-05-28T12:32:45.080Z,34.93
2017-05-28T12:33:45.672Z,35.13
2017-05-28T12:34:45.460Z,34.64
2017-05-28T12:35:45.497Z,34.66
2017-05-28T12:36:45.526Z,34.75
2017-05-28T12:37:45.575Z,35.14
2017-05-28T12:38:45.540Z,34.56
2017-05-28T12:39:45.638Z,34.38
2017-05-28T12:40:45.677Z,34.46
2017-05-28T12:41:45.707Z,34.36
2017-05-28T12:42:45.748Z,34.28
2017-05-28T12:43:46.033Z,34.36
2017-05-28T12:44:45.823Z,34.18
2017-05-28T12:45:45.860Z,33.98
2017-05-28T12:46:45.586Z,33.98
2017-05-28T12:47:45.940Z,34.28
2017-05-28T12:48:45.852Z,34.38
2017-05-28T12:49:46.002Z,33.98
2017-05-28T12:50:45.722Z,33.39
2017-05-28T12:51:45.762Z,33.69
2017-05-28T12:52:46.111Z,33.79
2017-05-28T12:53:46.398Z,33.7
2017-05-28T12:54:46.190Z,33.7
2017-05-28T12:55:46.222Z,33.91